Details From LPPT - Lisboa
To FQMA - Maputo
Flight Number -
Tags Real Decoded
Created
Modified
Stats Distance 4,537 nm / 8,403 km
Max Altitude 0 ft / 0 m
Waypoints 2
Social Downloads 7
Likes 0
Share VATSIM

Download

Looking for another format? Having issues loading an existing format? Contact us
Advertisement - Login to hide

Notes

Decoded

Route

LPPT FQMA

ID Type Via Altitude Latitude Longitude Leg Dist Tot Dist Heading (true) Name
O LPPT APT - 0 ft / 0 m 38.78624˚ -9.13721˚ - 0 nm - -
O FQMA APT - 0 ft / 0 m -25.92119˚ 32.56636˚ 4537 nm 4537 nm 142° / 148° -

Altitude Profile

Advertisement - Login to hide

Weather


0- 5 10 15 20 25 30 35+ Temperature / ° C

Clouds and Precipitation
Forecast for 2018-05-21 18:00 UTC. Updated 6 hours ago

Ground ~20,000 ft ~40,000 ft Winds

LPPT

Details ICAO LPPT (LIS)
Name Lisboa
Region Portugal
Timezone Europe/Lisbon (UTC+1.0)
Stats Elevation 374 ft / 114 m (AMSL)
Location 38.778559° -9.135146°
Runways 2
Magnetic Variation 2.310° W

METAR

LPPT 212300Z 23005KT 9999 FEW013 14/11 Q1014

Decode

TAF

TAF LPPT 211700Z 2118/2224 26010KT CAVOK BECMG 2119/2122 VRB03KT 9999 SCT015 BECMG 2203/2205 16008KT TEMPO 2203/2209 BKN015 BECMG 2209/2211 FEW030 BECMG 2212/2215 23010KT CAVOK BECMG 2220/2223 VRB03KT 9999 SCT012

Decode

Departure Runways

ID Width Length Bearing (true) Bearing (mag) Surface Threshold Offset Overrun Length
03 148 ft / 45 m 12,518 ft / 3,815 m 22.70° 25.01° Asphalt 296 ft / 90 m 0 ft / 0 m
17 148 ft / 45 m 7,922 ft / 2,415 m 168.38° 170.69° Asphalt 0 ft / 0 m 0 ft / 0 m
21 148 ft / 45 m 12,518 ft / 3,815 m 202.72° 205.03° Asphalt 1,969 ft / 600 m 0 ft / 0 m
35 148 ft / 45 m 7,922 ft / 2,415 m 348.38° 350.69° Asphalt 492 ft / 150 m 0 ft / 0 m

FQMA

Details ICAO FQMA (MPM)
Name MAPUTO
Region Mozambique
Timezone Africa/Maputo (UTC+2.0)
Stats Elevation 145 ft / 44 m (AMSL)
Location -25.915529° 32.576901°
Runways 2
Magnetic Variation 20.246° W

METAR

FQMA 212300Z 36005KT CAVOK 21/17 Q1015 NOSIG

Decode

TAF

TAF FQMA 211000Z 2112/2218 36010KT CAVOK BECMG 2118/2120 VRB03KT BECMG 2200/2202 35008KT BECMG 2212/2214 06008KT TN18/2203Z TX31/2113Z

Decode

Destination Runways

ID Width Length Bearing (true) Bearing (mag) Surface Threshold Offset Overrun Length
05 148 ft / 45 m 12,063 ft / 3,677 m 28.75° 49.00° Asphalt 0 ft / 0 m 238 ft / 73 m
10 148 ft / 45 m 5,560 ft / 1,695 m 86.29° 106.54° Asphalt 0 ft / 0 m 0 ft / 0 m
23 148 ft / 45 m 12,063 ft / 3,677 m 208.74° 228.99° Asphalt 0 ft / 0 m 984 ft / 300 m
28 148 ft / 45 m 5,560 ft / 1,695 m 266.28° 286.53° Asphalt 0 ft / 0 m 0 ft / 0 m

Approach Navaids

Runway Type Ident Frequency Range Bearing (true) Bearing (mag) Slope Elevation
23 Localiser IMA 110.30 MHz 18 nm / 33 km 208.75° 229.00° - 145 ft / 44 m (AMSL)
23 Glidescope IMA 110.30 MHz 10 nm / 19 km 208.75° 228.99° 3.00° 145 ft / 44 m (AMSL)

Popular Alternatives